Time;durP1;ratioP1;P1;durP2;ratioP2;P2;SDS_P1;SDS_P2;PMS_P1;PMS_P2;Temp;Humidity;BMP_temperature;BMP_pressure;BME280_temperature;BME280_humidity;BME280_pressure;Samples;Min_cycle;Max_cycle;Signal;HPM_P1;HPM_P2
2021/04/25 00:01:00;;;;;;;40.40;21.80;;;231.10;1689.60;;;;;;5073418;28;20531;-74
2021/04/25 00:03:26;;;;;;;33.25;20.27;;;231.10;1715.20;;;;;;5060887;28;20073;-74
2021/04/25 00:05:52;;;;;;;33.67;21.08;;;231.10;1740.80;;;;;;5061640;28;20024;-74
2021/04/25 00:08:18;;;;;;;37.17;22.23;;;231.00;1740.80;;;;;;5069169;28;20750;-74
2021/04/25 00:10:44;;;;;;;33.42;22.42;;;231.00;1740.80;;;;;;5064842;28;20506;-74
2021/04/25 00:13:10;;;;;;;32.50;20.98;;;231.00;1740.80;;;;;;5060686;28;20476;-74
2021/04/25 00:15:36;;;;;;;32.60;18.40;;;231.00;1740.80;;;;;;5075052;28;20468;-74
2021/04/25 00:18:02;;;;;;;30.63;19.70;;;230.90;1740.80;;;;;;5072828;28;20652;-74
2021/04/25 00:20:28;;;;;;;26.35;19.90;;;230.90;1740.80;;;;;;5066163;28;20037;-74
2021/04/25 00:22:54;;;;;;;29.50;20.23;;;230.90;1740.80;;;;;;5067513;28;20559;-74
2021/04/25 00:25:20;;;;;;;32.10;19.80;;;230.90;1766.40;;;;;;5072881;28;20028;-74
2021/04/25 00:27:46;;;;;;;28.33;18.55;;;230.80;1766.40;;;;;;5074421;28;21190;-74
2021/04/25 00:30:15;;;;;;;33.53;19.42;;;230.80;1740.80;;;;;;5089569;28;20059;-74
2021/04/25 00:32:41;;;;;;;31.63;19.48;;;230.80;1766.40;;;;;;5074430;28;20070;-74
2021/04/25 00:35:08;;;;;;;31.00;19.98;;;230.80;1766.40;;;;;;5070742;28;20017;-74
2021/04/25 00:37:34;;;;;;;29.50;18.38;;;230.80;1766.40;;;;;;5071694;28;20074;-75
2021/04/25 00:39:59;;;;;;;30.73;19.20;;;230.80;1766.40;;;;;;5069747;28;20029;-75
2021/04/25 00:42:25;;;;;;;32.35;21.45;;;230.70;1792.00;;;;;;5065658;28;20016;-75
2021/04/25 00:44:52;;;;;;;30.90;19.10;;;230.70;1792.00;;;;;;5064573;28;20024;-75
2021/04/25 00:47:17;;;;;;;29.63;19.48;;;230.70;1792.00;;;;;;5068049;28;20510;-74
2021/04/25 00:49:43;;;;;;;34.20;22.70;;;230.60;1792.00;;;;;;5072875;28;20032;-75
2021/04/25 00:52:10;;;;;;;28.83;19.48;;;230.60;1792.00;;;;;;5064303;28;20485;-74
2021/04/25 00:54:39;;;;;;;35.13;20.83;;;230.60;1792.00;;;;;;5083661;28;20541;-74
2021/04/25 00:57:06;;;;;;;32.15;21.38;;;230.60;1817.60;;;;;;5070537;28;20028;-74
2021/04/25 00:59:32;;;;;;;30.45;20.00;;;230.60;1792.00;;;;;;5073667;28;20047;-75
2021/04/25 01:01:58;;;;;;;31.90;19.70;;;230.60;1792.00;;;;;;5084145;28;20552;-74
2021/04/25 01:04:23;;;;;;;31.42;20.95;;;230.50;1792.00;;;;;;5089301;28;20119;-74
2021/04/25 01:06:49;;;;;;;35.92;22.92;;;230.40;1817.60;;;;;;5073363;28;20112;-74
2021/04/25 01:09:15;;;;;;;45.78;24.15;;;205.60;1843.20;;;;;;5069667;28;20025;-74
2021/04/25 01:11:41;;;;;;;36.40;24.25;;;205.30;1894.40;;;;;;5062633;28;20028;-75
2021/04/25 01:14:07;;;;;;;30.35;21.70;;;205.40;1868.80;;;;;;5073851;28;20896;-74
2021/04/25 01:16:32;;;;;;;36.35;24.52;;;205.40;1894.40;;;;;;5073499;28;20114;-74
2021/04/25 01:18:58;;;;;;;35.95;22.58;;;205.30;1894.40;;;;;;5073578;28;20107;-74
2021/04/25 01:21:24;;;;;;;34.13;23.52;;;205.30;1920.00;;;;;;5072441;28;20016;-74
2021/04/25 01:23:50;;;;;;;32.97;21.30;;;205.30;1920.00;;;;;;5078685;28;20029;-75
2021/04/25 01:26:16;;;;;;;31.95;21.67;;;205.40;1920.00;;;;;;5065651;28;20036;-74
2021/04/25 01:28:42;;;;;;;31.17;21.05;;;205.40;1894.40;;;;;;5068714;28;20039;-74
2021/04/25 01:31:08;;;;;;;33.95;21.83;;;205.30;1920.00;;;;;;5059527;28;20078;-74
2021/04/25 01:33:34;;;;;;;31.23;19.90;;;205.30;1894.40;;;;;;5072837;28;20064;-75
2021/04/25 01:36:01;;;;;;;27.73;17.73;;;205.30;1894.40;;;;;;5072112;28;20432;-75
2021/04/25 01:38:27;;;;;;;34.75;19.85;;;205.30;1894.40;;;;;;5076531;28;20097;-75
2021/04/25 01:40:52;;;;;;;32.28;19.17;;;205.40;1894.40;;;;;;5066240;28;20474;-75
2021/04/25 01:43:18;;;;;;;30.88;18.13;;;205.20;1920.00;;;;;;5071718;28;20020;-74
2021/04/25 01:45:44;;;;;;;24.98;17.63;;;205.20;1920.00;;;;;;5065064;28;20445;-75
2021/04/25 01:48:10;;;;;;;30.80;21.17;;;205.20;1894.40;;;;;;5060645;28;20512;-75
2021/04/25 01:50:37;;;;;;;26.95;18.23;;;205.20;1920.00;;;;;;5066899;28;20108;-75
2021/04/25 01:53:05;;;;;;;47.15;21.15;;;205.40;1894.40;;;;;;5062181;28;20116;-74
2021/04/25 01:55:33;;;;;;;31.23;20.52;;;205.30;1920.00;;;;;;5072846;28;20103;-75
2021/04/25 01:57:59;;;;;;;32.17;19.77;;;205.20;1920.00;;;;;;5073171;28;20112;-75
2021/04/25 02:00:37;;;;;;;30.35;20.17;;;205.30;1945.60;;;;;;5069562;28;20060;-74
2021/04/25 02:03:03;;;;;;;29.52;20.17;;;205.30;1945.60;;;;;;5059698;28;20356;-74
2021/04/25 02:05:30;;;;;;;32.67;20.40;;;205.30;1945.60;;;;;;5072642;28;20070;-74
2021/04/25 02:07:56;;;;;;;31.27;18.85;;;205.30;1920.00;;;;;;5072449;28;20070;-75
2021/04/25 02:10:23;;;;;;;28.73;22.05;;;205.20;1945.60;;;;;;5069243;28;20104;-74
2021/04/25 02:12:50;;;;;;;31.55;21.25;;;205.30;1945.60;;;;;;5071217;28;20024;-74
2021/04/25 02:15:16;;;;;;;30.30;20.60;;;205.30;1945.60;;;;;;5072359;28;20033;-75
2021/04/25 02:17:43;;;;;;;29.92;19.98;;;205.20;1945.60;;;;;;5064827;28;20033;-74
2021/04/25 02:20:14;;;;;;;31.52;21.30;;;205.20;1971.20;;;;;;5072745;28;20046;-75
2021/04/25 02:22:40;;;;;;;34.72;22.05;;;205.00;1996.80;;;;;;5072409;28;20093;-75
2021/04/25 02:25:08;;;;;;;31.17;20.05;;;204.90;2022.40;;;;;;5067161;28;20095;-75
2021/04/25 02:27:34;;;;;;;37.75;21.40;;;205.00;2022.40;;;;;;5062827;28;20025;-75
2021/04/25 02:30:00;;;;;;;33.65;21.75;;;205.10;1996.80;;;;;;5056880;28;20443;-75
2021/04/25 02:32:26;;;;;;;36.33;23.05;;;204.90;2022.40;;;;;;5072328;28;20031;-74
2021/04/25 02:34:51;;;;;;;33.42;22.88;;;204.80;2048.00;;;;;;5087807;28;20036;-74
2021/04/25 02:37:17;;;;;;;36.38;22.27;;;180.10;2048.00;;;;;;5072483;28;20044;-74
2021/04/25 02:39:43;;;;;;;34.53;22.63;;;204.80;2048.00;;;;;;5060046;28;20487;-74
2021/04/25 02:42:09;;;;;;;34.08;23.35;;;204.80;2048.00;;;;;;5071083;28;20025;-74
2021/04/25 02:44:35;;;;;;;34.47;22.40;;;204.80;2048.00;;;;;;5078973;28;20499;-75
2021/04/25 02:47:01;;;;;;;48.50;23.30;;;204.80;2048.00;;;;;;5057790;28;20032;-74
2021/04/25 02:49:26;;;;;;;39.15;23.70;;;204.80;2022.40;;;;;;5071893;28;20040;-74
2021/04/25 02:51:52;;;;;;;48.03;28.27;;;204.90;2022.40;;;;;;5072455;28;20025;-74
2021/04/25 02:54:19;;;;;;;41.00;25.02;;;204.90;2022.40;;;;;;5073794;28;20521;-74
2021/04/25 02:56:45;;;;;;;51.08;28.25;;;180.10;2048.00;;;;;;5079233;28;20036;-74
2021/04/25 02:59:10;;;;;;;49.70;28.52;;;180.10;2073.60;;;;;;5066200;28;20041;-74
2021/04/25 03:01:36;;;;;;;44.67;28.05;;;180.10;2073.60;;;;;;5052711;28;20021;-74
2021/04/25 03:04:03;;;;;;;51.58;30.10;;;204.80;2048.00;;;;;;5085744;28;20017;-74
2021/04/25 03:06:29;;;;;;;49.58;29.55;;;180.10;2048.00;;;;;;5063599;28;20017;-74
2021/04/25 03:08:55;;;;;;;45.75;27.50;;;180.10;2048.00;;;;;;5065998;28;20040;-74
2021/04/25 03:11:21;;;;;;;52.05;31.52;;;180.00;2073.60;;;;;;5066018;28;20033;-74
2021/04/25 03:13:46;;;;;;;51.33;30.77;;;180.00;2073.60;;;;;;5066737;28;20043;-74
2021/04/25 03:16:12;;;;;;;45.03;29.25;;;180.00;2073.60;;;;;;5070939;28;20107;-74
2021/04/25 03:18:38;;;;;;;45.53;28.23;;;180.00;2073.60;;;;;;5059074;28;20110;-74
2021/04/25 03:21:04;;;;;;;38.50;26.45;;;180.00;2073.60;;;;;;5062557;28;20174;-74
2021/04/25 03:23:29;;;;;;;41.65;25.88;;;180.00;2073.60;;;;;;5064353;28;20025;-74
2021/04/25 03:25:55;;;;;;;48.42;27.13;;;180.00;2073.60;;;;;;5089196;28;20475;-74
2021/04/25 03:28:21;;;;;;;36.13;23.98;;;180.00;2073.60;;;;;;5067862;28;20095;-74
2021/04/25 03:30:47;;;;;;;43.65;25.77;;;179.90;2073.60;;;;;;5067355;28;20136;-74
2021/04/25 03:33:13;;;;;;;39.83;25.92;;;179.90;2073.60;;;;;;5066538;28;20078;-75
2021/04/25 03:35:39;;;;;;;40.03;27.98;;;179.90;2099.20;;;;;;5075503;28;20082;-74
2021/04/25 03:38:05;;;;;;;49.55;28.85;;;179.90;2099.20;;;;;;5074170;28;20026;-75
2021/04/25 03:40:30;;;;;;;44.30;29.30;;;179.90;2073.60;;;;;;5075654;28;20379;-74
2021/04/25 03:42:56;;;;;;;39.40;26.38;;;179.90;2073.60;;;;;;5074815;28;20063;-75
2021/04/25 03:45:22;;;;;;;46.50;27.98;;;179.80;2099.20;;;;;;5075663;28;20062;-75
2021/04/25 03:47:50;;;;;;;40.95;26.52;;;179.90;2099.20;;;;;;5078516;28;20086;-75
2021/04/25 03:50:18;;;;;;;42.60;27.40;;;179.90;2073.60;;;;;;5075340;28;20078;-75
2021/04/25 03:52:45;;;;;;;37.15;25.50;;;179.90;2099.20;;;;;;5075221;28;20471;-75
2021/04/25 03:55:14;;;;;;;46.67;26.40;;;180.00;2073.60;;;;;;5075124;28;20032;-75
2021/04/25 03:57:40;;;;;;;41.38;24.88;;;180.00;2048.00;;;;;;5075400;28;20036;-75
2021/04/25 04:00:09;;;;;;;60.22;28.67;;;180.00;2048.00;;;;;;5074727;28;20053;-75
2021/04/25 04:02:35;;;;;;;53.28;26.48;;;180.10;2073.60;;;;;;5075009;28;20051;-75
2021/04/25 04:05:01;;;;;;;45.28;26.33;;;180.10;2073.60;;;;;;5073501;28;20364;-74
2021/04/25 04:07:27;;;;;;;50.20;30.08;;;180.10;2073.60;;;;;;5073754;28;20162;-74
2021/04/25 04:09:52;;;;;;;45.10;27.50;;;204.80;2073.60;;;;;;5074870;28;20036;-75
2021/04/25 04:12:19;;;;;;;43.88;25.20;;;204.90;2073.60;;;;;;5073337;28;20495;-74
2021/04/25 04:14:44;;;;;;;36.50;24.83;;;204.90;2073.60;;;;;;5076412;28;20035;-75
2021/04/25 04:17:10;;;;;;;47.42;27.52;;;180.10;2073.60;;;;;;5077688;28;20028;-75
2021/04/25 04:19:36;;;;;;;43.42;27.67;;;204.80;2073.60;;;;;;5077624;28;20107;-75
2021/04/25 04:22:02;;;;;;;45.90;29.90;;;204.90;2073.60;;;;;;5075115;28;20569;-76
2021/04/25 04:24:28;;;;;;;51.72;30.67;;;204.80;2073.60;;;;;;5070478;28;20103;-75
2021/04/25 04:26:54;;;;;;;48.22;31.45;;;205.00;2073.60;;;;;;5068536;28;20095;-75
2021/04/25 04:29:19;;;;;;;50.63;30.60;;;205.20;2073.60;;;;;;5074622;28;20037;-76
2021/04/25 04:31:45;;;;;;;38.50;25.42;;;205.30;2048.00;;;;;;5061911;28;20111;-75
2021/04/25 04:34:11;;;;;;;49.13;26.95;;;205.40;2048.00;;;;;;5060511;28;20086;-75
2021/04/25 04:36:37;;;;;;;39.60;25.67;;;205.40;2048.00;;;;;;5074514;28;20103;-75
2021/04/25 04:39:03;;;;;;;41.80;27.65;;;205.40;2073.60;;;;;;5073295;28;20035;-75
2021/04/25 04:41:29;;;;;;;42.00;26.65;;;205.50;2048.00;;;;;;5068271;28;20020;-75
2021/04/25 04:43:54;;;;;;;42.25;27.20;;;205.60;2048.00;;;;;;5064628;28;20493;-75
2021/04/25 04:46:21;;;;;;;44.92;27.85;;;205.60;2048.00;;;;;;5070928;28;20035;-74
2021/04/25 04:48:47;;;;;;;41.88;24.65;;;230.50;2022.40;;;;;;5072964;28;20098;-74
2021/04/25 04:51:13;;;;;;;43.22;24.52;;;230.80;1996.80;;;;;;5074193;28;20469;-74
2021/04/25 04:53:38;;;;;;;37.40;22.90;;;231.00;1996.80;;;;;;5074157;28;20017;-74
2021/04/25 04:56:04;;;;;;;35.75;25.35;;;231.20;1971.20;;;;;;5060731;28;20021;-74
2021/04/25 04:58:30;;;;;;;37.17;21.80;;;256.00;1945.60;;;;;;5060841;28;20041;-75
2021/04/25 05:00:56;;;;;;;36.17;24.50;;;256.10;1945.60;;;;;;5066448;28;20024;-75
2021/04/25 05:03:21;;;;;;;41.25;23.00;;;256.30;1920.00;;;;;;5073965;28;20032;-75
2021/04/25 05:05:47;;;;;;;40.25;23.42;;;256.60;1894.40;;;;;;5073867;28;20858;-75
2021/04/25 05:08:13;;;;;;;35.55;24.30;;;256.80;1868.80;;;;;;5078924;28;20029;-75
2021/04/25 05:10:39;;;;;;;37.42;26.52;;;281.60;1843.20;;;;;;5073153;28;20040;-75
2021/04/25 05:13:08;;;;;;;43.33;25.67;;;281.70;1843.20;;;;;;5075934;28;20016;-75
2021/04/25 05:15:35;;;;;;;46.22;23.77;;;281.80;1792.00;;;;;;5070697;28;20104;-75
2021/04/25 05:18:01;;;;;;;40.22;22.67;;;282.20;1792.00;;;;;;5077607;28;20450;-75
2021/04/25 05:20:28;;;;;;;38.45;23.63;;;282.40;1740.80;;;;;;5069696;28;20028;-75
2021/04/25 05:22:55;;;;;;;31.33;22.60;;;307.20;1766.40;;;;;;5062673;28;20052;-76
2021/04/25 05:25:21;;;;;;;25.23;21.25;;;307.40;1715.20;;;;;;5072079;28;20047;-74
2021/04/25 05:27:47;;;;;;;32.55;18.45;;;307.40;1715.20;;;;;;5071531;28;20468;-75
2021/04/25 05:30:13;;;;;;;23.38;16.83;;;307.40;1664.00;;;;;;5073457;28;20039;-74
2021/04/25 05:32:39;;;;;;;24.60;17.65;;;307.40;1638.40;;;;;;5061204;28;20038;-74
2021/04/25 05:35:05;;;;;;;28.05;17.30;;;307.50;1638.40;;;;;;5071515;28;20016;-74
2021/04/25 05:37:31;;;;;;;26.05;17.52;;;307.80;1612.80;;;;;;5053158;28;20475;-75
2021/04/25 05:39:56;;;;;;;29.48;20.05;;;307.90;1612.80;;;;;;5072164;28;20081;-74
2021/04/25 05:42:22;;;;;;;28.38;17.60;;;308.00;1587.20;;;;;;5060604;28;20021;-74
2021/04/25 05:44:48;;;;;;;24.65;16.88;;;332.80;1612.80;;;;;;5066622;28;20454;-75
2021/04/25 05:47:14;;;;;;;25.00;16.75;;;333.10;1561.60;;;;;;5077577;28;20463;-74
2021/04/25 05:49:40;;;;;;;22.75;14.27;;;333.30;1561.60;;;;;;5073256;28;20028;-75
2021/04/25 05:52:05;;;;;;;22.83;15.23;;;333.40;1510.40;;;;;;5088103;28;20509;-74
2021/04/25 05:54:31;;;;;;;21.65;14.57;;;333.70;1484.80;;;;;;5073187;28;20094;-75
2021/04/25 05:56:57;;;;;;;21.10;15.13;;;358.40;1459.20;;;;;;5069613;28;20039;-74
2021/04/25 05:59:23;;;;;;;22.08;13.00;;;358.60;1459.20;;;;;;5065869;28;20107;-75
2021/04/25 06:01:48;;;;;;;19.27;13.20;;;358.80;1382.40;;;;;;5080262;28;20638;-74
2021/04/25 06:04:14;;;;;;;21.35;14.15;;;358.90;1433.60;;;;;;5073144;28;20020;-75
2021/04/25 06:06:40;;;;;;;23.92;14.70;;;359.00;1408.00;;;;;;5072870;28;20102;-74
2021/04/25 06:09:06;;;;;;;22.92;14.48;;;359.00;1433.60;;;;;;5072189;28;20471;-75
2021/04/25 06:11:34;;;;;;;18.88;14.73;;;359.10;1408.00;;;;;;5064269;28;20030;-74
2021/04/25 06:14:00;;;;;;;25.00;15.57;;;384.00;1408.00;;;;;;5071065;28;20028;-74
2021/04/25 06:16:25;;;;;;;24.67;13.50;;;384.10;1382.40;;;;;;5069223;28;20020;-74
2021/04/25 06:18:51;;;;;;;23.58;12.55;;;384.50;1356.80;;;;;;5066365;28;20037;-73
2021/04/25 06:21:17;;;;;;;16.08;10.68;;;409.60;1356.80;;;;;;5067842;28;20563;-74
2021/04/25 06:23:43;;;;;;;14.07;10.02;;;409.90;1280.00;;;;;;5075010;28;20024;-74
2021/04/25 06:26:08;;;;;;;19.15;11.05;;;410.30;1280.00;;;;;;5068894;28;20017;-74
2021/04/25 06:28:34;;;;;;;18.95;11.38;;;435.20;1228.80;;;;;;5070101;28;20514;-74
2021/04/25 06:31:00;;;;;;;17.55;11.50;;;410.10;1280.00;;;;;;5073025;28;20035;-74
2021/04/25 06:33:26;;;;;;;16.58;11.57;;;409.90;1305.60;;;;;;5070822;28;20039;-74
2021/04/25 06:35:52;;;;;;;17.20;10.90;;;410.00;1305.60;;;;;;5074381;28;20861;-74
2021/04/25 06:38:17;;;;;;;16.33;9.50;;;410.30;1305.60;;;;;;5071750;28;20027;-75
2021/04/25 06:40:43;;;;;;;11.05;8.10;;;435.40;1203.20;;;;;;5068969;28;20028;-73
2021/04/25 06:43:09;;;;;;;11.07;8.55;;;435.80;1126.40;;;;;;5069221;28;20063;-72
2021/04/25 06:45:35;;;;;;;12.25;8.57;;;460.80;1126.40;;;;;;5068193;28;20021;-73
2021/04/25 06:48:01;;;;;;;11.02;7.38;;;461.10;1100.80;;;;;;5065289;28;20096;-73
2021/04/25 06:50:27;;;;;;;13.05;8.80;;;461.30;1049.60;;;;;;5068801;28;20111;-74
2021/04/25 06:52:53;;;;;;;10.57;7.65;;;461.30;1100.80;;;;;;5070356;28;20399;-73
2021/04/25 06:55:22;;;;;;;12.60;8.05;;;461.50;1075.20;;;;;;5072732;28;20509;-74
2021/04/25 06:57:49;;;;;;;11.68;7.90;;;461.70;1075.20;;;;;;5071356;28;20111;-75
2021/04/25 07:00:16;;;;;;;9.82;7.30;;;486.60;1049.60;;;;;;5069937;28;20041;-75
2021/04/25 07:02:43;;;;;;;12.20;7.85;;;486.70;1024.00;;;;;;5067617;28;20078;-73
2021/04/25 07:05:09;;;;;;;18.50;10.23;;;487.10;1024.00;;;;;;5073210;28;20023;-74
2021/04/25 07:07:35;;;;;;;12.40;7.50;;;486.90;1024.00;;;;;;5069452;28;20467;-75
2021/04/25 07:10:02;;;;;;;12.00;8.35;;;487.20;998.40;;;;;;5067272;28;20074;-75
2021/04/25 07:12:28;;;;;;;11.15;8.18;;;487.20;998.40;;;;;;5070250;28;20024;-75
2021/04/25 07:14:56;;;;;;;21.77;9.02;;;487.00;998.40;;;;;;5071260;28;20104;-74
2021/04/25 07:17:22;;;;;;;11.75;7.72;;;487.20;998.40;;;;;;5068799;28;20036;-75
2021/04/25 07:19:47;;;;;;;17.17;9.05;;;487.20;947.20;;;;;;5066910;28;20024;-74
2021/04/25 07:22:13;;;;;;;13.35;8.70;;;512.10;947.20;;;;;;5065234;28;20025;-74
2021/04/25 07:24:39;;;;;;;13.13;9.15;;;512.30;947.20;;;;;;5068559;28;20075;-74
2021/04/25 07:27:05;;;;;;;11.60;8.13;;;487.10;972.80;;;;;;5069780;28;20024;-74
2021/04/25 07:29:31;;;;;;;12.32;8.45;;;512.10;947.20;;;;;;5070390;28;20790;-74
2021/04/25 07:32:00;;;;;;;11.73;7.70;;;512.50;921.60;;;;;;5068218;28;20052;-74
2021/04/25 07:34:26;;;;;;;13.55;9.73;;;512.90;870.40;;;;;;5071800;28;20020;-74
2021/04/25 07:36:53;;;;;;;12.82;8.40;;;512.60;896.00;;;;;;5063191;28;20029;-75
2021/04/25 07:39:19;;;;;;;11.85;7.38;;;537.60;896.00;;;;;;5068767;28;20055;-74
2021/04/25 07:41:45;;;;;;;14.13;9.20;;;537.90;870.40;;;;;;5077644;28;20027;-75
2021/04/25 07:44:11;;;;;;;13.32;8.73;;;538.00;870.40;;;;;;5072186;28;20025;-74
2021/04/25 07:46:37;;;;;;;11.82;8.20;;;537.60;819.20;;;;;;5070998;28;20020;-74
2021/04/25 07:49:03;;;;;;;11.65;7.85;;;537.60;819.20;;;;;;5067041;28;20108;-74
2021/04/25 07:51:28;;;;;;;12.23;7.55;;;512.90;870.40;;;;;;5069788;28;20383;-74
2021/04/25 07:53:56;;;;;;;11.75;7.40;;;537.90;844.80;;;;;;5067183;28;20033;-74
2021/04/25 07:56:21;;;;;;;19.13;10.80;;;538.50;819.20;;;;;;5070946;28;20020;-74
2021/04/25 07:58:47;;;;;;;16.13;8.82;;;563.40;870.40;;;;;;5068018;28;20105;-74
2021/04/25 08:01:15;;;;;;;15.25;10.68;;;563.20;768.00;;;;;;5066498;28;20222;-75
2021/04/25 08:03:40;;;;;;;14.40;8.40;;;563.70;768.00;;;;;;5071056;28;20035;-74
2021/04/25 08:06:06;;;;;;;14.65;9.15;;;588.80;768.00;;;;;;5067795;28;20099;-74
2021/04/25 08:08:33;;;;;;;13.50;9.23;;;588.80;742.40;;;;;;5071366;28;20099;-74
2021/04/25 08:10:58;;;;;;;16.20;8.88;;;588.90;742.40;;;;;;5070697;28;20024;-74
2021/04/25 08:13:24;;;;;;;15.02;8.25;;;589.00;742.40;;;;;;5071333;28;20806;-74
2021/04/25 08:15:50;;;;;;;13.07;8.40;;;564.00;742.40;;;;;;5075309;28;20024;-74
2021/04/25 08:18:16;;;;;;;12.35;9.02;;;563.40;768.00;;;;;;5071707;28;20035;-74
2021/04/25 08:20:42;;;;;;;12.68;8.63;;;563.80;768.00;;;;;;5071535;28;20029;-74
2021/04/25 08:23:07;;;;;;;14.13;8.88;;;564.00;768.00;;;;;;5073525;28;20021;-74
2021/04/25 08:25:33;;;;;;;14.02;8.90;;;589.00;742.40;;;;;;5063782;28;20072;-74
2021/04/25 08:27:59;;;;;;;14.77;8.50;;;589.30;742.40;;;;;;5066501;28;20106;-74
2021/04/25 08:30:25;;;;;;;18.33;9.10;;;589.40;742.40;;;;;;5070810;28;20032;-73
2021/04/25 08:32:51;;;;;;;15.20;8.18;;;589.40;742.40;;;;;;5073644;28;20020;-74
2021/04/25 08:35:18;;;;;;;14.23;8.40;;;589.50;716.80;;;;;;5081310;28;20615;-74
2021/04/25 08:37:47;;;;;;;16.95;10.35;;;589.30;716.80;;;;;;5073840;28;20033;-74
2021/04/25 08:40:14;;;;;;;11.70;8.07;;;588.80;742.40;;;;;;5065066;28;20031;-74
2021/04/25 08:42:42;;;;;;;11.95;8.27;;;589.10;742.40;;;;;;5073224;28;20517;-74
2021/04/25 08:45:08;;;;;;;13.10;8.82;;;589.40;716.80;;;;;;5071086;28;20029;-74
2021/04/25 08:47:57;;;;;;;16.52;10.63;;;589.70;691.20;;;;;;5057307;28;20020;-74
2021/04/25 08:50:24;;;;;;;14.55;9.93;;;614.90;691.20;;;;;;5068121;28;20487;-74
2021/04/25 08:52:50;;;;;;;14.77;9.77;;;615.30;665.60;;;;;;5053467;28;20041;-73
2021/04/25 08:55:16;;;;;;;11.00;8.88;;;615.00;665.60;;;;;;5071258;28;20031;-74
2021/04/25 08:57:42;;;;;;;12.15;9.07;;;640.20;665.60;;;;;;5064590;28;20044;-74
2021/04/25 09:00:09;;;;;;;11.15;8.20;;;640.00;665.60;;;;;;5072454;28;20435;-74
2021/04/25 09:02:35;;;;;;;10.65;8.02;;;640.20;640.00;;;;;;5068575;28;20388;-74
2021/04/25 09:05:02;;;;;;;17.50;9.18;;;640.50;614.40;;;;;;5069189;28;20514;-73
2021/04/25 09:07:28;;;;;;;13.55;8.73;;;640.30;640.00;;;;;;5063369;28;20078;-74
2021/04/25 09:10:00;;;;;;;12.55;7.90;;;640.60;640.00;;;;;;5071542;28;20029;-74
2021/04/25 09:12:37;;;;;;;12.77;8.20;;;640.70;614.40;;;;;;5064573;28;20033;-74
2021/04/25 09:15:25;;;;;;;9.73;8.00;;;665.90;614.40;;;;;;5068099;28;20016;-74
2021/04/25 09:18:02;;;;;;;14.55;10.27;;;666.00;614.40;;;;;;5071527;28;20032;-74
2021/04/25 09:20:43;;;;;;;12.40;9.32;;;666.10;614.40;;;;;;5073618;28;20025;-73
2021/04/25 09:23:12;;;;;;;11.52;8.63;;;665.80;588.80;;;;;;5077648;28;20432;-73
2021/04/25 09:25:39;;;;;;;12.88;9.20;;;666.20;588.80;;;;;;5066326;28;20017;-75
2021/04/25 09:28:16;;;;;;;13.30;9.60;;;691.20;563.20;;;;;;5059141;28;20357;-73
2021/04/25 09:31:04;;;;;;;14.98;9.60;;;666.10;588.80;;;;;;5054150;28;20036;-74
2021/04/25 09:33:47;;;;;;;13.80;8.90;;;691.40;588.80;;;;;;5055268;28;20060;-75
2021/04/25 09:36:14;;;;;;;14.50;10.00;;;692.00;537.60;;;;;;5064639;28;20365;-74
2021/04/25 09:38:40;;;;;;;13.48;9.07;;;691.90;563.20;;;;;;5071046;28;20038;-75
2021/04/25 09:41:06;;;;;;;12.70;8.68;;;691.80;563.20;;;;;;5072103;28;20550;-74
2021/04/25 09:43:45;;;;;;;13.00;8.68;;;692.00;563.20;;;;;;5072282;28;20074;-74
2021/04/25 09:46:11;;;;;;;10.93;7.65;;;717.00;537.60;;;;;;5072101;28;20063;-73
2021/04/25 09:48:41;;;;;;;10.93;8.45;;;717.00;563.20;;;;;;5066850;28;20491;-73
2021/04/25 09:51:22;;;;;;;14.35;9.38;;;717.00;537.60;;;;;;5070031;28;20012;-74
2021/04/25 09:53:54;;;;;;;17.70;9.48;;;716.80;563.20;;;;;;5069904;28;20016;-73
2021/04/25 09:56:22;;;;;;;11.88;8.85;;;717.10;563.20;;;;;;5065896;28;20117;-74
2021/04/25 09:58:57;;;;;;;14.75;9.75;;;716.80;537.60;;;;;;5071254;28;20047;-71
2021/04/25 10:01:34;;;;;;;12.68;9.55;;;691.80;537.60;;;;;;5085672;28;20103;-71
2021/04/25 10:04:02;;;;;;;15.98;9.95;;;717.50;537.60;;;;;;5066220;28;20059;-72
2021/04/25 10:06:31;;;;;;;12.73;8.88;;;717.10;563.20;;;;;;5069844;28;20100;-72
2021/04/25 10:08:57;;;;;;;14.70;8.82;;;717.50;537.60;;;;;;5069056;28;20028;-71
2021/04/25 10:11:25;;;;;;;12.48;9.88;;;742.80;537.60;;;;;;5068318;28;20021;-72
2021/04/25 10:13:51;;;;;;;14.88;10.43;;;717.70;537.60;;;;;;5069640;28;20048;-71
2021/04/25 10:16:20;;;;;;;12.65;9.52;;;743.10;537.60;;;;;;5069710;28;20031;-72
2021/04/25 10:18:46;;;;;;;11.27;8.65;;;768.00;537.60;;;;;;5071066;28;20020;-72
2021/04/25 10:21:12;;;;;;;11.95;9.15;;;742.90;537.60;;;;;;5071521;28;20412;-72
2021/04/25 10:23:39;;;;;;;14.45;9.15;;;742.70;563.20;;;;;;5068440;28;20025;-72
2021/04/25 10:26:16;;;;;;;15.15;9.93;;;743.20;537.60;;;;;;5068730;28;20048;-72
2021/04/25 10:28:53;;;;;;;14.60;9.00;;;743.30;537.60;;;;;;5063452;28;20112;-72
2021/04/25 10:31:35;;;;;;;14.30;11.45;;;768.20;512.00;;;;;;5068191;28;20067;-71
2021/04/25 10:34:28;;;;;;;13.77;10.60;;;768.30;486.40;;;;;;5066536;28;20023;-72
2021/04/25 10:36:57;;;;;;;12.93;9.90;;;768.10;512.00;;;;;;5059189;28;20823;-71
2021/04/25 10:39:34;;;;;;;12.30;10.20;;;768.10;537.60;;;;;;5065009;28;20081;-71
2021/04/25 10:42:25;;;;;;;14.45;9.30;;;768.10;537.60;;;;;;5064400;28;20021;-71
2021/04/25 10:45:01;;;;;;;11.82;9.30;;;768.00;537.60;;;;;;5074439;28;20116;-70
2021/04/25 10:47:33;;;;;;;11.07;8.85;;;768.30;486.40;;;;;;5076519;28;20047;-71
2021/04/25 10:50:01;;;;;;;15.38;9.73;;;768.30;512.00;;;;;;5064298;28;20028;-71
2021/04/25 10:52:32;;;;;;;15.98;10.32;;;768.80;486.40;;;;;;5063149;28;20021;-72
2021/04/25 10:55:28;;;;;;;13.73;11.38;;;768.70;460.80;;;;;;5068186;28;20056;-71
2021/04/25 10:57:54;;;;;;;12.15;8.02;;;793.80;512.00;;;;;;5063182;28;20017;-71
2021/04/25 11:02:59;;;;;;;11.65;8.60;;;768.50;486.40;;;;;;5067713;28;20028;-72
2021/04/25 11:05:37;;;;;;;11.02;7.90;;;768.50;460.80;;;;;;5058118;28;20018;-72
2021/04/25 11:08:29;;;;;;;12.52;8.35;;;793.60;512.00;;;;;;5079574;28;20033;-71
2021/04/25 11:10:56;;;;;;;12.82;9.38;;;793.70;486.40;;;;;;5061591;28;20048;-71
2021/04/25 11:13:42;;;;;;;11.73;7.85;;;794.30;486.40;;;;;;5061703;28;20025;-71
2021/04/25 11:16:13;;;;;;;13.10;8.85;;;794.30;486.40;;;;;;5057749;28;20020;-71
2021/04/25 11:19:04;;;;;;;11.45;8.80;;;819.40;460.80;;;;;;5056505;28;20043;-70
2021/04/25 11:21:37;;;;;;;11.77;8.20;;;819.70;460.80;;;;;;5079638;28;20492;-71
2021/04/25 11:24:03;;;;;;;11.82;8.63;;;819.70;460.80;;;;;;5070382;28;20029;-70
2021/04/25 11:26:41;;;;;;;14.57;9.35;;;819.50;460.80;;;;;;5081348;28;20041;-71
2021/04/25 11:29:22;;;;;;;22.95;13.32;;;819.20;460.80;;;;;;5074173;28;20033;-71
2021/04/25 11:31:56;;;;;;;17.20;10.50;;;794.10;486.40;;;;;;5063611;28;20134;-71
2021/04/25 11:34:28;;;;;;;20.85;11.23;;;794.50;460.80;;;;;;5057405;28;20017;-70
2021/04/25 11:37:02;;;;;;;16.05;8.98;;;819.20;460.80;;;;;;5064006;28;20042;-71
2021/04/25 11:39:39;;;;;;;15.63;10.40;;;794.50;460.80;;;;;;5079662;28;20040;-70
2021/04/25 11:42:05;;;;;;;12.70;9.23;;;819.40;435.20;;;;;;5075750;28;20097;-71
2021/04/25 11:44:41;;;;;;;12.55;9.27;;;794.30;486.40;;;;;;5081709;28;20036;-70
2021/04/25 11:47:09;;;;;;;18.52;10.50;;;819.70;435.20;;;;;;5070536;28;20020;-68
2021/04/25 11:49:37;;;;;;;14.50;9.88;;;844.80;460.80;;;;;;5069677;28;20028;-71
2021/04/25 11:52:11;;;;;;;12.88;9.00;;;820.10;435.20;;;;;;5070295;28;20043;-71
2021/04/25 11:54:38;;;;;;;12.25;8.57;;;820.10;435.20;;;;;;5064954;28;20029;-71
2021/04/25 11:57:08;;;;;;;14.07;8.88;;;819.20;460.80;;;;;;5070247;28;20028;-71
2021/04/25 11:59:34;;;;;;;17.33;10.93;;;819.30;460.80;;;;;;5069961;28;20044;-72
2021/04/25 12:02:09;;;;;;;11.85;9.18;;;819.50;460.80;;;;;;5067861;28;20067;-72
2021/04/25 12:04:46;;;;;;;12.18;9.40;;;793.80;486.40;;;;;;5069685;28;20036;-72
2021/04/25 12:07:12;;;;;;;12.07;9.63;;;768.70;486.40;;;;;;5070952;28;20032;-72
2021/04/25 12:09:39;;;;;;;13.65;9.25;;;768.00;512.00;;;;;;5069675;28;20478;-72
2021/04/25 12:12:08;;;;;;;11.32;9.55;;;794.40;460.80;;;;;;5069723;28;20012;-72